sensor_id;sensor_type;location;lat;lon;timestamp;P1;durP1;ratioP1;P2;durP2;ratioP2
19396;SDS011;9834;48.076;11.878;2024-03-08T04:02:13;25.37;;;13.67;;
19396;SDS011;9834;48.076;11.878;2024-03-08T04:04:46;25.40;;;13.03;;
19396;SDS011;9834;48.076;11.878;2024-03-08T04:07:20;22.67;;;12.27;;
19396;SDS011;9834;48.076;11.878;2024-03-08T04:09:51;27.97;;;11.87;;
19396;SDS011;9834;48.076;11.878;2024-03-08T04:12:21;27.33;;;13.47;;
19396;SDS011;9834;48.076;11.878;2024-03-08T04:14:59;24.97;;;14.17;;
19396;SDS011;9834;48.076;11.878;2024-03-08T04:17:32;27.77;;;12.87;;
19396;SDS011;9834;48.076;11.878;2024-03-08T04:20:04;29.57;;;14.77;;
19396;SDS011;9834;48.076;11.878;2024-03-08T04:22:35;27.93;;;12.67;;
19396;SDS011;9834;48.076;11.878;2024-03-08T04:25:06;24.23;;;12.73;;
19396;SDS011;9834;48.076;11.878;2024-03-08T04:27:36;22.80;;;12.27;;
19396;SDS011;9834;48.076;11.878;2024-03-08T04:30:07;26.10;;;12.80;;
19396;SDS011;9834;48.076;11.878;2024-03-08T04:32:36;27.57;;;13.47;;
19396;SDS011;9834;48.076;11.878;2024-03-08T04:35:03;25.60;;;12.73;;
19396;SDS011;9834;48.076;11.878;2024-03-08T04:37:37;28.60;;;14.37;;
19396;SDS011;9834;48.076;11.878;2024-03-08T04:40:07;25.17;;;13.67;;
19396;SDS011;9834;48.076;11.878;2024-03-08T04:42:39;33.83;;;13.93;;
19396;SDS011;9834;48.076;11.878;2024-03-08T04:45:09;25.57;;;13.87;;
19396;SDS011;9834;48.076;11.878;2024-03-08T04:47:41;29.20;;;14.80;;
19396;SDS011;9834;48.076;11.878;2024-03-08T04:50:14;25.90;;;12.80;;
19396;SDS011;9834;48.076;11.878;2024-03-08T04:52:48;27.90;;;14.10;;
19396;SDS011;9834;48.076;11.878;2024-03-08T04:55:15;28.37;;;12.90;;
19396;SDS011;9834;48.076;11.878;2024-03-08T04:57:46;27.17;;;13.33;;
19396;SDS011;9834;48.076;11.878;2024-03-08T05:00:17;28.17;;;13.97;;
19396;SDS011;9834;48.076;11.878;2024-03-08T05:02:47;28.80;;;14.13;;
19396;SDS011;9834;48.076;11.878;2024-03-08T05:05:18;27.60;;;14.20;;
19396;SDS011;9834;48.076;11.878;2024-03-08T05:07:55;35.50;;;15.33;;
19396;SDS011;9834;48.076;11.878;2024-03-08T05:10:26;28.87;;;15.10;;
19396;SDS011;9834;48.076;11.878;2024-03-08T05:12:58;32.50;;;16.17;;
19396;SDS011;9834;48.076;11.878;2024-03-08T05:15:26;30.53;;;13.93;;
19396;SDS011;9834;48.076;11.878;2024-03-08T05:17:55;25.33;;;13.33;;
19396;SDS011;9834;48.076;11.878;2024-03-08T05:20:29;29.50;;;13.93;;
19396;SDS011;9834;48.076;11.878;2024-03-08T05:22:56;24.10;;;13.63;;
19396;SDS011;9834;48.076;11.878;2024-03-08T05:25:25;28.97;;;14.20;;
19396;SDS011;9834;48.076;11.878;2024-03-08T05:27:55;29.67;;;14.73;;
19396;SDS011;9834;48.076;11.878;2024-03-08T05:30:26;33.40;;;16.33;;
19396;SDS011;9834;48.076;11.878;2024-03-08T05:32:55;28.37;;;15.20;;
19396;SDS011;9834;48.076;11.878;2024-03-08T05:35:25;25.70;;;13.13;;
19396;SDS011;9834;48.076;11.878;2024-03-08T05:37:52;24.33;;;12.73;;
19396;SDS011;9834;48.076;11.878;2024-03-08T05:40:19;34.43;;;14.20;;
19396;SDS011;9834;48.076;11.878;2024-03-08T05:42:50;20.73;;;12.97;;
19396;SDS011;9834;48.076;11.878;2024-03-08T05:45:17;28.00;;;14.00;;
19396;SDS011;9834;48.076;11.878;2024-03-08T05:47:49;30.93;;;15.13;;
19396;SDS011;9834;48.076;11.878;2024-03-08T05:50:18;31.33;;;13.20;;
19396;SDS011;9834;48.076;11.878;2024-03-08T05:52:55;28.10;;;13.67;;
19396;SDS011;9834;48.076;11.878;2024-03-08T05:55:26;27.03;;;13.40;;
19396;SDS011;9834;48.076;11.878;2024-03-08T05:57:57;32.93;;;13.57;;
19396;SDS011;9834;48.076;11.878;2024-03-08T06:00:26;30.07;;;15.33;;
19396;SDS011;9834;48.076;11.878;2024-03-08T06:02:53;28.90;;;14.00;;
19396;SDS011;9834;48.076;11.878;2024-03-08T06:05:22;24.20;;;12.77;;
19396;SDS011;9834;48.076;11.878;2024-03-08T06:07:51;29.53;;;13.60;;
19396;SDS011;9834;48.076;11.878;2024-03-08T06:10:22;29.73;;;13.87;;
19396;SDS011;9834;48.076;11.878;2024-03-08T06:12:55;26.20;;;14.97;;
19396;SDS011;9834;48.076;11.878;2024-03-08T06:15:22;26.47;;;13.03;;
19396;SDS011;9834;48.076;11.878;2024-03-08T06:17:51;30.80;;;13.93;;
19396;SDS011;9834;48.076;11.878;2024-03-08T06:20:19;28.87;;;13.37;;
19396;SDS011;9834;48.076;11.878;2024-03-08T06:22:58;30.13;;;15.47;;
19396;SDS011;9834;48.076;11.878;2024-03-08T06:25:26;34.83;;;14.13;;
19396;SDS011;9834;48.076;11.878;2024-03-08T06:27:57;33.17;;;14.53;;
19396;SDS011;9834;48.076;11.878;2024-03-08T06:30:27;29.67;;;14.87;;
19396;SDS011;9834;48.076;11.878;2024-03-08T06:33:33;24.60;;;14.80;;
19396;SDS011;9834;48.076;11.878;2024-03-08T06:36:13;30.67;;;14.97;;
19396;SDS011;9834;48.076;11.878;2024-03-08T06:38:45;28.83;;;14.40;;
19396;SDS011;9834;48.076;11.878;2024-03-08T06:41:15;26.77;;;14.43;;
19396;SDS011;9834;48.076;11.878;2024-03-08T06:43:43;30.23;;;14.87;;
19396;SDS011;9834;48.076;11.878;2024-03-08T06:46:22;36.77;;;16.17;;
19396;SDS011;9834;48.076;11.878;2024-03-08T06:48:50;39.80;;;15.30;;
19396;SDS011;9834;48.076;11.878;2024-03-08T06:51:21;34.00;;;13.73;;
19396;SDS011;9834;48.076;11.878;2024-03-08T06:53:50;37.97;;;16.17;;
19396;SDS011;9834;48.076;11.878;2024-03-08T06:56:21;32.50;;;14.60;;
19396;SDS011;9834;48.076;11.878;2024-03-08T06:58:54;32.43;;;16.30;;
19396;SDS011;9834;48.076;11.878;2024-03-08T07:01:31;30.27;;;14.87;;
19396;SDS011;9834;48.076;11.878;2024-03-08T07:04:01;36.40;;;15.43;;
19396;SDS011;9834;48.076;11.878;2024-03-08T07:06:30;31.87;;;16.63;;
19396;SDS011;9834;48.076;11.878;2024-03-08T07:09:04;26.93;;;14.13;;
19396;SDS011;9834;48.076;11.878;2024-03-08T07:11:31;30.10;;;14.07;;
19396;SDS011;9834;48.076;11.878;2024-03-08T07:14:00;32.07;;;13.47;;
19396;SDS011;9834;48.076;11.878;2024-03-08T07:16:31;28.40;;;14.63;;
19396;SDS011;9834;48.076;11.878;2024-03-08T07:19:02;26.57;;;13.93;;
19396;SDS011;9834;48.076;11.878;2024-03-08T07:21:41;25.27;;;12.23;;
19396;SDS011;9834;48.076;11.878;2024-03-08T07:24:12;31.40;;;12.93;;
19396;SDS011;9834;48.076;11.878;2024-03-08T07:26:53;25.07;;;12.70;;
19396;SDS011;9834;48.076;11.878;2024-03-08T07:29:20;27.73;;;13.80;;
19396;SDS011;9834;48.076;11.878;2024-03-08T07:31:48;25.60;;;13.13;;
19396;SDS011;9834;48.076;11.878;2024-03-08T07:34:36;25.73;;;12.73;;
19396;SDS011;9834;48.076;11.878;2024-03-08T07:37:08;30.33;;;13.80;;
19396;SDS011;9834;48.076;11.878;2024-03-08T07:39:38;23.77;;;12.43;;
19396;SDS011;9834;48.076;11.878;2024-03-08T07:42:05;28.23;;;12.63;;
19396;SDS011;9834;48.076;11.878;2024-03-08T07:44:38;27.13;;;13.47;;
19396;SDS011;9834;48.076;11.878;2024-03-08T07:47:13;23.40;;;12.10;;
19396;SDS011;9834;48.076;11.878;2024-03-08T07:49:42;20.63;;;11.53;;
19396;SDS011;9834;48.076;11.878;2024-03-08T07:52:13;23.03;;;11.30;;
19396;SDS011;9834;48.076;11.878;2024-03-08T07:54:47;26.33;;;15.03;;
19396;SDS011;9834;48.076;11.878;2024-03-08T07:57:14;24.03;;;11.37;;
19396;SDS011;9834;48.076;11.878;2024-03-08T07:59:43;25.33;;;12.33;;
19396;SDS011;9834;48.076;11.878;2024-03-08T08:02:20;23.77;;;11.53;;
19396;SDS011;9834;48.076;11.878;2024-03-08T08:04:49;22.30;;;10.67;;
19396;SDS011;9834;48.076;11.878;2024-03-08T08:07:17;22.43;;;10.90;;
19396;SDS011;9834;48.076;11.878;2024-03-08T08:09:49;24.43;;;11.60;;
19396;SDS011;9834;48.076;11.878;2024-03-08T08:12:16;26.50;;;12.63;;
19396;SDS011;9834;48.076;11.878;2024-03-08T08:14:44;18.63;;;10.70;;
19396;SDS011;9834;48.076;11.878;2024-03-08T08:17:12;18.83;;;11.27;;
19396;SDS011;9834;48.076;11.878;2024-03-08T08:19:40;20.63;;;10.57;;
19396;SDS011;9834;48.076;11.878;2024-03-08T08:22:08;23.00;;;11.03;;
19396;SDS011;9834;48.076;11.878;2024-03-08T08:24:36;18.23;;;10.70;;
19396;SDS011;9834;48.076;11.878;2024-03-08T08:27:07;24.43;;;10.60;;
19396;SDS011;9834;48.076;11.878;2024-03-08T08:29:34;17.30;;;9.73;;
19396;SDS011;9834;48.076;11.878;2024-03-08T08:32:04;22.73;;;10.73;;
19396;SDS011;9834;48.076;11.878;2024-03-08T08:34:31;26.40;;;11.73;;
19396;SDS011;9834;48.076;11.878;2024-03-08T08:36:59;20.00;;;11.07;;
19396;SDS011;9834;48.076;11.878;2024-03-08T08:39:27;18.10;;;11.20;;
19396;SDS011;9834;48.076;11.878;2024-03-08T08:41:55;24.67;;;10.07;;
19396;SDS011;9834;48.076;11.878;2024-03-08T08:44:24;19.33;;;9.70;;
19396;SDS011;9834;48.076;11.878;2024-03-08T08:46:55;21.30;;;10.67;;
19396;SDS011;9834;48.076;11.878;2024-03-08T08:49:22;19.93;;;10.90;;
19396;SDS011;9834;48.076;11.878;2024-03-08T08:51:51;21.47;;;11.00;;
19396;SDS011;9834;48.076;11.878;2024-03-08T08:54:19;23.33;;;10.83;;
19396;SDS011;9834;48.076;11.878;2024-03-08T08:56:47;18.37;;;10.63;;
19396;SDS011;9834;48.076;11.878;2024-03-08T08:59:15;22.43;;;11.13;;
19396;SDS011;9834;48.076;11.878;2024-03-08T09:01:48;21.23;;;11.73;;
19396;SDS011;9834;48.076;11.878;2024-03-08T09:04:19;24.10;;;10.80;;
19396;SDS011;9834;48.076;11.878;2024-03-08T09:06:48;20.33;;;10.80;;
19396;SDS011;9834;48.076;11.878;2024-03-08T09:09:19;20.47;;;11.40;;
19396;SDS011;9834;48.076;11.878;2024-03-08T09:11:47;24.20;;;11.73;;
19396;SDS011;9834;48.076;11.878;2024-03-08T09:14:19;24.07;;;10.67;;
19396;SDS011;9834;48.076;11.878;2024-03-08T09:16:47;26.23;;;11.80;;
19396;SDS011;9834;48.076;11.878;2024-03-08T09:19:15;16.80;;;10.00;;
19396;SDS011;9834;48.076;11.878;2024-03-08T09:21:44;17.80;;;9.83;;
19396;SDS011;9834;48.076;11.878;2024-03-08T09:24:12;20.07;;;11.10;;
19396;SDS011;9834;48.076;11.878;2024-03-08T09:26:42;21.27;;;9.33;;
19396;SDS011;9834;48.076;11.878;2024-03-08T09:29:14;15.00;;;9.27;;
19396;SDS011;9834;48.076;11.878;2024-03-08T09:31:43;20.47;;;10.40;;
19396;SDS011;9834;48.076;11.878;2024-03-08T09:34:18;18.10;;;8.80;;
19396;SDS011;9834;48.076;11.878;2024-03-08T09:36:49;15.97;;;9.10;;
19396;SDS011;9834;48.076;11.878;2024-03-08T09:39:17;17.73;;;10.23;;
19396;SDS011;9834;48.076;11.878;2024-03-08T09:41:49;17.73;;;9.57;;
19396;SDS011;9834;48.076;11.878;2024-03-08T09:44:20;15.67;;;8.57;;
19396;SDS011;9834;48.076;11.878;2024-03-08T09:46:55;16.60;;;9.90;;
19396;SDS011;9834;48.076;11.878;2024-03-08T09:49:24;19.87;;;9.67;;
19396;SDS011;9834;48.076;11.878;2024-03-08T09:51:58;17.33;;;8.93;;
19396;SDS011;9834;48.076;11.878;2024-03-08T09:54:30;18.17;;;8.73;;
19396;SDS011;9834;48.076;11.878;2024-03-08T09:57:08;14.80;;;9.17;;
19396;SDS011;9834;48.076;11.878;2024-03-08T09:59:38;17.27;;;8.47;;
19396;SDS011;9834;48.076;11.878;2024-03-08T10:02:19;18.37;;;9.73;;
19396;SDS011;9834;48.076;11.878;2024-03-08T10:04:50;14.73;;;8.03;;
19396;SDS011;9834;48.076;11.878;2024-03-08T10:07:28;16.67;;;8.87;;
19396;SDS011;9834;48.076;11.878;2024-03-08T10:10:02;15.43;;;9.30;;
19396;SDS011;9834;48.076;11.878;2024-03-08T10:12:33;16.07;;;9.67;;
19396;SDS011;9834;48.076;11.878;2024-03-08T10:15:07;18.83;;;9.57;;
19396;SDS011;9834;48.076;11.878;2024-03-08T10:17:41;16.83;;;9.37;;
19396;SDS011;9834;48.076;11.878;2024-03-08T10:20:13;17.97;;;9.40;;
19396;SDS011;9834;48.076;11.878;2024-03-08T10:22:41;19.23;;;9.23;;
19396;SDS011;9834;48.076;11.878;2024-03-08T10:25:34;16.20;;;8.53;;
19396;SDS011;9834;48.076;11.878;2024-03-08T10:28:04;15.63;;;8.77;;
19396;SDS011;9834;48.076;11.878;2024-03-08T10:30:32;15.03;;;8.00;;
19396;SDS011;9834;48.076;11.878;2024-03-08T10:33:01;20.37;;;8.93;;
19396;SDS011;9834;48.076;11.878;2024-03-08T10:35:30;14.93;;;8.30;;
19396;SDS011;9834;48.076;11.878;2024-03-08T10:37:58;14.83;;;9.47;;
19396;SDS011;9834;48.076;11.878;2024-03-08T10:40:29;13.10;;;8.90;;
19396;SDS011;9834;48.076;11.878;2024-03-08T10:42:58;16.90;;;10.10;;
19396;SDS011;9834;48.076;11.878;2024-03-08T10:45:30;17.00;;;8.90;;
19396;SDS011;9834;48.076;11.878;2024-03-08T10:48:19;16.57;;;9.70;;
19396;SDS011;9834;48.076;11.878;2024-03-08T10:50:57;15.20;;;10.33;;
19396;SDS011;9834;48.076;11.878;2024-03-08T10:53:29;13.93;;;8.20;;
19396;SDS011;9834;48.076;11.878;2024-03-08T10:56:02;18.97;;;9.93;;
19396;SDS011;9834;48.076;11.878;2024-03-08T10:58:30;19.20;;;9.33;;
19396;SDS011;9834;48.076;11.878;2024-03-08T11:01:00;21.30;;;9.37;;
19396;SDS011;9834;48.076;11.878;2024-03-08T11:03:48;16.50;;;8.90;;
19396;SDS011;9834;48.076;11.878;2024-03-08T11:06:19;16.10;;;9.00;;
19396;SDS011;9834;48.076;11.878;2024-03-08T11:08:51;14.17;;;8.70;;
19396;SDS011;9834;48.076;11.878;2024-03-08T11:11:28;18.83;;;9.37;;
19396;SDS011;9834;48.076;11.878;2024-03-08T11:14:00;16.83;;;8.70;;
19396;SDS011;9834;48.076;11.878;2024-03-08T11:16:38;18.00;;;9.73;;
19396;SDS011;9834;48.076;11.878;2024-03-08T11:19:31;17.17;;;9.50;;
19396;SDS011;9834;48.076;11.878;2024-03-08T11:22:00;17.37;;;9.33;;
19396;SDS011;9834;48.076;11.878;2024-03-08T11:24:46;14.00;;;8.47;;
19396;SDS011;9834;48.076;11.878;2024-03-08T11:27:14;14.40;;;8.03;;
19396;SDS011;9834;48.076;11.878;2024-03-08T11:29:59;19.77;;;9.47;;
19396;SDS011;9834;48.076;11.878;2024-03-08T11:32:35;10.77;;;7.33;;
19396;SDS011;9834;48.076;11.878;2024-03-08T11:35:17;14.73;;;7.93;;
19396;SDS011;9834;48.076;11.878;2024-03-08T11:37:50;20.67;;;8.57;;
19396;SDS011;9834;48.076;11.878;2024-03-08T11:40:19;12.37;;;8.23;;
19396;SDS011;9834;48.076;11.878;2024-03-08T11:42:48;11.50;;;8.40;;
19396;SDS011;9834;48.076;11.878;2024-03-08T11:45:19;12.50;;;8.27;;
19396;SDS011;9834;48.076;11.878;2024-03-08T11:47:50;19.73;;;9.60;;
19396;SDS011;9834;48.076;11.878;2024-03-08T11:50:21;13.87;;;8.30;;
19396;SDS011;9834;48.076;11.878;2024-03-08T11:52:49;11.53;;;7.57;;
19396;SDS011;9834;48.076;11.878;2024-03-08T11:55:22;14.53;;;8.13;;
19396;SDS011;9834;48.076;11.878;2024-03-08T11:58:09;14.87;;;7.63;;
19396;SDS011;9834;48.076;11.878;2024-03-08T12:00:39;15.90;;;8.23;;
19396;SDS011;9834;48.076;11.878;2024-03-08T12:03:17;15.43;;;7.77;;
19396;SDS011;9834;48.076;11.878;2024-03-08T12:05:47;11.43;;;6.80;;
19396;SDS011;9834;48.076;11.878;2024-03-08T12:08:24;9.43;;;7.20;;
19396;SDS011;9834;48.076;11.878;2024-03-08T12:10:55;17.03;;;8.93;;
19396;SDS011;9834;48.076;11.878;2024-03-08T12:13:27;12.67;;;8.00;;
19396;SDS011;9834;48.076;11.878;2024-03-08T12:15:59;14.43;;;8.50;;
19396;SDS011;9834;48.076;11.878;2024-03-08T12:18:35;14.70;;;8.03;;
19396;SDS011;9834;48.076;11.878;2024-03-08T12:21:09;12.47;;;7.90;;
19396;SDS011;9834;48.076;11.878;2024-03-08T12:23:37;12.13;;;7.73;;
19396;SDS011;9834;48.076;11.878;2024-03-08T12:26:11;13.50;;;6.97;;
19396;SDS011;9834;48.076;11.878;2024-03-08T12:28:41;12.97;;;7.47;;
19396;SDS011;9834;48.076;11.878;2024-03-08T12:31:12;13.10;;;7.53;;
19396;SDS011;9834;48.076;11.878;2024-03-08T12:33:49;12.90;;;7.67;;
19396;SDS011;9834;48.076;11.878;2024-03-08T12:36:24;11.57;;;7.20;;
19396;SDS011;9834;48.076;11.878;2024-03-08T12:38:53;12.30;;;6.90;;
19396;SDS011;9834;48.076;11.878;2024-03-08T12:41:23;12.67;;;6.93;;
19396;SDS011;9834;48.076;11.878;2024-03-08T12:43:54;9.43;;;6.50;;
19396;SDS011;9834;48.076;11.878;2024-03-08T12:46:27;10.40;;;7.17;;
19396;SDS011;9834;48.076;11.878;2024-03-08T12:48:57;11.30;;;7.30;;
19396;SDS011;9834;48.076;11.878;2024-03-08T12:51:35;10.87;;;7.50;;
19396;SDS011;9834;48.076;11.878;2024-03-08T12:54:04;10.97;;;7.40;;
19396;SDS011;9834;48.076;11.878;2024-03-08T12:56:35;10.77;;;6.50;;
19396;SDS011;9834;48.076;11.878;2024-03-08T12:59:08;8.77;;;6.50;;
19396;SDS011;9834;48.076;11.878;2024-03-08T13:01:37;12.60;;;7.57;;
19396;SDS011;9834;48.076;11.878;2024-03-08T13:04:04;10.90;;;6.80;;
19396;SDS011;9834;48.076;11.878;2024-03-08T13:06:37;7.53;;;5.50;;
19396;SDS011;9834;48.076;11.878;2024-03-08T13:09:06;8.90;;;6.40;;
19396;SDS011;9834;48.076;11.878;2024-03-08T13:11:38;9.00;;;5.87;;
19396;SDS011;9834;48.076;11.878;2024-03-08T13:14:13;9.17;;;6.13;;
19396;SDS011;9834;48.076;11.878;2024-03-08T13:16:48;12.00;;;6.20;;
19396;SDS011;9834;48.076;11.878;2024-03-08T13:19:17;8.10;;;5.10;;
19396;SDS011;9834;48.076;11.878;2024-03-08T13:21:50;8.55;;;6.55;;
19396;SDS011;9834;48.076;11.878;2024-03-08T13:24:26;9.70;;;6.28;;
19396;SDS011;9834;48.076;11.878;2024-03-08T13:26:57;11.95;;;6.47;;
19396;SDS011;9834;48.076;11.878;2024-03-08T13:29:25;7.40;;;5.90;;
19396;SDS011;9834;48.076;11.878;2024-03-08T13:31:53;9.88;;;5.60;;
19396;SDS011;9834;48.076;11.878;2024-03-08T13:34:22;11.13;;;6.85;;
19396;SDS011;9834;48.076;11.878;2024-03-08T13:37:05;12.98;;;6.25;;
19396;SDS011;9834;48.076;11.878;2024-03-08T13:39:32;8.80;;;6.45;;
19396;SDS011;9834;48.076;11.878;2024-03-08T13:42:06;10.60;;;6.50;;
19396;SDS011;9834;48.076;11.878;2024-03-08T13:44:37;11.05;;;5.47;;
19396;SDS011;9834;48.076;11.878;2024-03-08T13:47:11;7.72;;;6.30;;
19396;SDS011;9834;48.076;11.878;2024-03-08T13:49:41;11.23;;;7.45;;
19396;SDS011;9834;48.076;11.878;2024-03-08T13:52:12;11.60;;;6.57;;
19396;SDS011;9834;48.076;11.878;2024-03-08T13:54:40;11.88;;;7.50;;
19396;SDS011;9834;48.076;11.878;2024-03-08T13:57:08;8.75;;;7.07;;
19396;SDS011;9834;48.076;11.878;2024-03-08T13:59:43;10.07;;;7.03;;
19396;SDS011;9834;48.076;11.878;2024-03-08T14:02:11;11.82;;;8.68;;
19396;SDS011;9834;48.076;11.878;2024-03-08T14:04:42;10.68;;;7.05;;
19396;SDS011;9834;48.076;11.878;2024-03-08T14:07:10;12.38;;;7.40;;
19396;SDS011;9834;48.076;11.878;2024-03-08T14:09:41;9.77;;;7.20;;
19396;SDS011;9834;48.076;11.878;2024-03-08T14:12:20;10.10;;;6.60;;
19396;SDS011;9834;48.076;11.878;2024-03-08T14:14:49;13.13;;;7.55;;
19396;SDS011;9834;48.076;11.878;2024-03-08T14:17:18;12.20;;;7.60;;
19396;SDS011;9834;48.076;11.878;2024-03-08T14:19:46;11.75;;;7.35;;
19396;SDS011;9834;48.076;11.878;2024-03-08T14:22:14;8.43;;;7.18;;
19396;SDS011;9834;48.076;11.878;2024-03-08T14:24:43;8.93;;;7.30;;
19396;SDS011;9834;48.076;11.878;2024-03-08T14:27:17;12.00;;;7.40;;
19396;SDS011;9834;48.076;11.878;2024-03-08T14:29:48;11.07;;;7.43;;
19396;SDS011;9834;48.076;11.878;2024-03-08T14:32:19;10.13;;;7.20;;
19396;SDS011;9834;48.076;11.878;2024-03-08T14:34:48;11.25;;;7.35;;
19396;SDS011;9834;48.076;11.878;2024-03-08T14:37:15;13.25;;;7.45;;
19396;SDS011;9834;48.076;11.878;2024-03-08T14:39:58;13.05;;;7.97;;
19396;SDS011;9834;48.076;11.878;2024-03-08T14:42:30;11.75;;;7.97;;
19396;SDS011;9834;48.076;11.878;2024-03-08T14:44:59;11.00;;;7.00;;
19396;SDS011;9834;48.076;11.878;2024-03-08T14:47:49;12.63;;;7.60;;
19396;SDS011;9834;48.076;11.878;2024-03-08T14:50:20;10.55;;;7.07;;
19396;SDS011;9834;48.076;11.878;2024-03-08T14:52:49;10.10;;;7.15;;
19396;SDS011;9834;48.076;11.878;2024-03-08T14:55:23;11.98;;;7.38;;
19396;SDS011;9834;48.076;11.878;2024-03-08T14:57:51;11.10;;;6.90;;
19396;SDS011;9834;48.076;11.878;2024-03-08T15:00:20;12.05;;;7.40;;
19396;SDS011;9834;48.076;11.878;2024-03-08T15:02:58;11.50;;;7.88;;
19396;SDS011;9834;48.076;11.878;2024-03-08T15:05:27;9.48;;;6.55;;
19396;SDS011;9834;48.076;11.878;2024-03-08T15:07:57;9.98;;;6.93;;
19396;SDS011;9834;48.076;11.878;2024-03-08T15:10:27;10.55;;;6.57;;
19396;SDS011;9834;48.076;11.878;2024-03-08T15:12:58;13.23;;;6.53;;
19396;SDS011;9834;48.076;11.878;2024-03-08T15:15:39;10.52;;;6.85;;
19396;SDS011;9834;48.076;11.878;2024-03-08T15:18:13;7.93;;;6.65;;
19396;SDS011;9834;48.076;11.878;2024-03-08T15:20:44;9.88;;;6.53;;
19396;SDS011;9834;48.076;11.878;2024-03-08T15:23:12;11.05;;;7.50;;
19396;SDS011;9834;48.076;11.878;2024-03-08T15:25:41;8.07;;;6.53;;
19396;SDS011;9834;48.076;11.878;2024-03-08T15:28:14;7.75;;;5.82;;
19396;SDS011;9834;48.076;11.878;2024-03-08T15:30:44;10.15;;;6.90;;
19396;SDS011;9834;48.076;11.878;2024-03-08T15:33:16;9.43;;;7.20;;
19396;SDS011;9834;48.076;11.878;2024-03-08T15:35:51;8.35;;;6.00;;
19396;SDS011;9834;48.076;11.878;2024-03-08T15:38:24;10.35;;;6.90;;
19396;SDS011;9834;48.076;11.878;2024-03-08T15:40:57;8.88;;;6.70;;
19396;SDS011;9834;48.076;11.878;2024-03-08T15:43:24;9.93;;;6.45;;
19396;SDS011;9834;48.076;11.878;2024-03-08T15:45:52;9.05;;;6.03;;
19396;SDS011;9834;48.076;11.878;2024-03-08T15:48:23;8.70;;;5.82;;
19396;SDS011;9834;48.076;11.878;2024-03-08T15:50:53;9.02;;;6.20;;
19396;SDS011;9834;48.076;11.878;2024-03-08T15:53:21;9.43;;;6.40;;
19396;SDS011;9834;48.076;11.878;2024-03-08T15:55:49;11.70;;;6.93;;
19396;SDS011;9834;48.076;11.878;2024-03-08T15:58:25;11.07;;;6.47;;
19396;SDS011;9834;48.076;11.878;2024-03-08T16:00:53;8.30;;;5.00;;
19396;SDS011;9834;48.076;11.878;2024-03-08T16:03:24;10.40;;;6.70;;
19396;SDS011;9834;48.076;11.878;2024-03-08T16:05:53;12.27;;;6.37;;
19396;SDS011;9834;48.076;11.878;2024-03-08T16:08:21;11.30;;;7.50;;
19396;SDS011;9834;48.076;11.878;2024-03-08T16:10:55;12.10;;;6.90;;
19396;SDS011;9834;48.076;11.878;2024-03-08T16:13:26;9.70;;;6.70;;
19396;SDS011;9834;48.076;11.878;2024-03-08T16:15:55;9.97;;;7.27;;
19396;SDS011;9834;48.076;11.878;2024-03-08T16:18:23;17.67;;;8.00;;
19396;SDS011;9834;48.076;11.878;2024-03-08T16:20:51;11.77;;;6.27;;
19396;SDS011;9834;48.076;11.878;2024-03-08T16:23:23;12.63;;;7.13;;
19396;SDS011;9834;48.076;11.878;2024-03-08T16:25:51;10.97;;;7.07;;
19396;SDS011;9834;48.076;11.878;2024-03-08T16:28:19;13.00;;;7.50;;
19396;SDS011;9834;48.076;11.878;2024-03-08T16:30:52;10.20;;;6.50;;
19396;SDS011;9834;48.076;11.878;2024-03-08T16:33:20;10.93;;;7.20;;
19396;SDS011;9834;48.076;11.878;2024-03-08T16:38:27;10.50;;;7.10;;
19396;SDS011;9834;48.076;11.878;2024-03-08T16:40:56;10.83;;;6.80;;
19396;SDS011;9834;48.076;11.878;2024-03-08T16:43:25;11.90;;;6.93;;
19396;SDS011;9834;48.076;11.878;2024-03-08T16:45:55;10.90;;;7.60;;
19396;SDS011;9834;48.076;11.878;2024-03-08T16:48:25;12.33;;;6.57;;
19396;SDS011;9834;48.076;11.878;2024-03-08T16:50:55;14.77;;;7.07;;
19396;SDS011;9834;48.076;11.878;2024-03-08T16:53:23;14.80;;;8.20;;
19396;SDS011;9834;48.076;11.878;2024-03-08T16:55:54;11.03;;;7.43;;
19396;SDS011;9834;48.076;11.878;2024-03-08T16:58:25;15.47;;;7.17;;
19396;SDS011;9834;48.076;11.878;2024-03-08T17:00:52;14.23;;;8.30;;
19396;SDS011;9834;48.076;11.878;2024-03-08T17:03:24;14.73;;;7.67;;
19396;SDS011;9834;48.076;11.878;2024-03-08T17:05:52;10.87;;;7.73;;
19396;SDS011;9834;48.076;11.878;2024-03-08T17:08:23;15.20;;;8.03;;
19396;SDS011;9834;48.076;11.878;2024-03-08T17:10:51;15.80;;;8.73;;
19396;SDS011;9834;48.076;11.878;2024-03-08T17:13:20;19.83;;;8.93;;
19396;SDS011;9834;48.076;11.878;2024-03-08T17:15:53;15.47;;;8.73;;
19396;SDS011;9834;48.076;11.878;2024-03-08T17:18:22;14.40;;;8.57;;
19396;SDS011;9834;48.076;11.878;2024-03-08T17:21:04;16.93;;;8.60;;
19396;SDS011;9834;48.076;11.878;2024-03-08T17:23:46;11.73;;;7.40;;
19396;SDS011;9834;48.076;11.878;2024-03-08T17:26:14;14.27;;;8.40;;
19396;SDS011;9834;48.076;11.878;2024-03-08T17:28:46;12.33;;;7.13;;
19396;SDS011;9834;48.076;11.878;2024-03-08T17:31:21;16.40;;;8.20;;
19396;SDS011;9834;48.076;11.878;2024-03-08T17:33:50;14.70;;;7.57;;
19396;SDS011;9834;48.076;11.878;2024-03-08T17:36:19;15.10;;;8.20;;
19396;SDS011;9834;48.076;11.878;2024-03-08T17:38:50;17.70;;;9.17;;
19396;SDS011;9834;48.076;11.878;2024-03-08T17:41:19;18.37;;;8.73;;
19396;SDS011;9834;48.076;11.878;2024-03-08T17:47:11;17.83;;;9.07;;
19396;SDS011;9834;48.076;11.878;2024-03-08T17:49:40;21.67;;;9.10;;
19396;SDS011;9834;48.076;11.878;2024-03-08T17:52:10;18.80;;;9.90;;
19396;SDS011;9834;48.076;11.878;2024-03-08T17:54:37;16.33;;;9.63;;
19396;SDS011;9834;48.076;11.878;2024-03-08T17:57:05;19.67;;;9.07;;
19396;SDS011;9834;48.076;11.878;2024-03-08T17:59:32;14.50;;;9.37;;
19396;SDS011;9834;48.076;11.878;2024-03-08T18:02:00;18.00;;;8.80;;
19396;SDS011;9834;48.076;11.878;2024-03-08T18:04:29;14.07;;;8.10;;
19396;SDS011;9834;48.076;11.878;2024-03-08T18:06:57;13.87;;;8.53;;
19396;SDS011;9834;48.076;11.878;2024-03-08T18:12:46;15.97;;;8.13;;
19396;SDS011;9834;48.076;11.878;2024-03-08T18:15:16;19.27;;;8.87;;
19396;SDS011;9834;48.076;11.878;2024-03-08T18:17:50;14.93;;;8.43;;
19396;SDS011;9834;48.076;11.878;2024-03-08T18:20:26;15.07;;;8.73;;
19396;SDS011;9834;48.076;11.878;2024-03-08T18:22:56;14.87;;;8.40;;
19396;SDS011;9834;48.076;11.878;2024-03-08T18:25:24;16.27;;;9.10;;
19396;SDS011;9834;48.076;11.878;2024-03-08T18:27:52;15.60;;;9.27;;
19396;SDS011;9834;48.076;11.878;2024-03-08T18:30:22;15.80;;;9.07;;
19396;SDS011;9834;48.076;11.878;2024-03-08T18:32:55;15.27;;;8.53;;
19396;SDS011;9834;48.076;11.878;2024-03-08T18:35:29;15.33;;;8.33;;
19396;SDS011;9834;48.076;11.878;2024-03-08T18:38:04;12.30;;;8.37;;
19396;SDS011;9834;48.076;11.878;2024-03-08T18:40:36;15.27;;;7.93;;
19396;SDS011;9834;48.076;11.878;2024-03-08T18:43:09;12.17;;;7.20;;
19396;SDS011;9834;48.076;11.878;2024-03-08T18:45:36;15.90;;;8.27;;
19396;SDS011;9834;48.076;11.878;2024-03-08T18:48:08;15.50;;;8.57;;
19396;SDS011;9834;48.076;11.878;2024-03-08T18:50:43;11.47;;;7.10;;
19396;SDS011;9834;48.076;11.878;2024-03-08T18:53:25;14.70;;;7.73;;
19396;SDS011;9834;48.076;11.878;2024-03-08T18:55:58;15.33;;;7.67;;
19396;SDS011;9834;48.076;11.878;2024-03-08T18:58:29;15.83;;;7.70;;
19396;SDS011;9834;48.076;11.878;2024-03-08T19:01:00;15.20;;;8.20;;
19396;SDS011;9834;48.076;11.878;2024-03-08T19:03:29;16.20;;;8.47;;
19396;SDS011;9834;48.076;11.878;2024-03-08T19:06:01;14.43;;;7.67;;